Time;durP1;ratioP1;P1;durP2;ratioP2;P2;SDS_P1;SDS_P2;PMS_P1;PMS_P2;Temp;Humidity;BMP_temperature;BMP_pressure;BME280_temperature;BME280_humidity;BME280_pressure;Samples;Min_cycle;Max_cycle;Signal;HPM_P1;HPM_P2
2021/06/15 00:01:31;;;;;;;6.60;5.75;;;;;;;17.06;74.12;99285.45;1748010;80;21027;-59
2021/06/15 00:03:57;;;;;;;6.60;5.75;;;;;;;17.05;74.06;99289.19;1727486;80;21067;-59
2021/06/15 00:06:24;;;;;;;6.67;6.08;;;;;;;17.01;74.20;99297.37;1727773;80;21117;-59
2021/06/15 00:08:50;;;;;;;4.75;4.25;;;;;;;17.03;74.30;99296.11;1727324;80;20996;-60
2021/06/15 00:11:17;;;;;;;5.50;5.00;;;;;;;17.06;74.25;99294.85;1742429;80;20998;-59
2021/06/15 00:13:43;;;;;;;5.42;4.92;;;;;;;17.06;74.09;99290.82;1742034;82;20972;-60
2021/06/15 00:16:09;;;;;;;5.35;4.85;;;;;;;17.07;74.33;99283.08;1769719;80;20944;-59
2021/06/15 00:18:36;;;;;;;5.95;5.45;;;;;;;17.11;74.46;99281.59;1754972;80;21096;-60
2021/06/15 00:21:02;;;;;;;6.22;5.62;;;;;;;17.13;74.21;99277.64;1770100;80;20936;-59
2021/06/15 00:23:29;;;;;;;5.75;5.10;;;;;;;17.01;74.33;99283.41;1734818;80;20971;-59
2021/06/15 00:25:55;;;;;;;5.40;5.00;;;;;;;16.95;74.50;99286.13;1751955;80;21450;-59
2021/06/15 00:28:21;;;;;;;7.10;5.42;;;;;;;16.93;74.46;99281.49;1735087;80;20952;-59
2021/06/15 00:30:47;;;;;;;5.87;5.28;;;;;;;16.86;74.54;99288.77;1735072;80;21137;-59
2021/06/15 00:33:14;;;;;;;7.22;6.37;;;;;;;16.82;74.76;99287.03;1713676;81;21432;-59
2021/06/15 00:35:40;;;;;;;6.53;5.12;;;;;;;16.86;75.05;99278.86;1770740;80;20979;-60
2021/06/15 00:38:06;;;;;;;7.15;6.10;;;;;;;16.91;75.27;99275.52;1727552;80;20912;-59
2021/06/15 00:40:33;;;;;;;5.80;5.30;;;;;;;16.96;75.27;99275.18;1739115;80;20988;-59
2021/06/15 00:42:59;;;;;;;6.08;5.47;;;;;;;17.03;75.19;99273.78;1727359;80;21081;-59
2021/06/15 00:45:27;;;;;;;5.55;5.05;;;;;;;17.06;75.14;99271.50;1776825;80;20833;-59
2021/06/15 00:47:54;;;;;;;5.70;5.08;;;;;;;17.12;75.03;99272.50;1751151;80;20885;-60
2021/06/15 00:50:23;;;;;;;6.12;5.47;;;;;;;17.16;74.83;99273.18;1763820;80;20999;-60
2021/06/15 00:52:52;;;;;;;5.83;5.33;;;;;;;17.18;74.66;99263.58;1732958;80;21041;-59
2021/06/15 00:55:21;;;;;;;5.92;5.42;;;;;;;17.18;74.61;99262.23;1727352;80;21197;-59
2021/06/15 00:57:48;;;;;;;9.23;6.08;;;;;;;17.14;74.32;99269.89;1727612;80;21007;-60
2021/06/15 01:00:17;;;;;;;8.40;7.35;;;;;;;17.11;74.40;99267.63;1746154;80;20982;-61
2021/06/15 01:02:44;;;;;;;8.23;7.50;;;;;;;17.04;74.62;99268.20;1779603;80;20964;-61
2021/06/15 01:05:14;;;;;;;9.90;8.90;;;;;;;17.06;74.77;99272.01;1746283;80;20963;-63
2021/06/15 01:08:08;;;;;;;17.80;16.00;;;;;;;17.05;74.85;99265.80;1749693;80;21139;-61
2021/06/15 01:11:16;;;;;;;20.57;18.42;;;;;;;17.05;74.89;99263.12;1706196;81;20998;-61
2021/06/15 01:14:16;;;;;;;18.05;16.20;;;;;;;17.06;74.84;99259.41;1734489;80;20933;-60
2021/06/15 01:17:19;;;;;;;16.90;14.35;;;;;;;17.07;74.60;99259.72;1721288;82;20951;-59
2021/06/15 01:20:11;;;;;;;16.10;14.40;;;;;;;17.03;74.60;99263.86;1745466;80;21122;-61
2021/06/15 01:23:08;;;;;;;15.72;14.13;;;;;;;17.03;74.52;99255.80;1739392;80;21147;-60
2021/06/15 01:26:10;;;;;;;17.02;13.93;;;;;;;16.97;74.46;99250.48;1768227;80;21010;-59
2021/06/15 01:28:55;;;;;;;18.25;12.10;;;;;;;16.96;74.44;99250.17;1775285;78;21089;-60
2021/06/15 01:31:31;;;;;;;13.35;11.88;;;;;;;16.87;74.33;99247.45;1799629;78;20907;-60
2021/06/15 01:34:03;;;;;;;11.08;9.85;;;;;;;16.81;74.38;99239.73;1779668;78;21001;-59
2021/06/15 01:36:34;;;;;;;11.33;10.15;;;;;;;16.78;74.60;99240.67;1775124;78;21135;-59
2021/06/15 01:39:12;;;;;;;11.60;9.88;;;;;;;16.68;74.56;99247.86;1773965;78;21472;-59
2021/06/15 01:42:23;;;;;;;15.38;10.00;;;;;;;16.50;74.99;99251.75;1796114;78;21049;-60
2021/06/15 01:44:54;;;;;;;9.53;8.28;;;;;;;16.37;75.36;99253.94;1773111;78;20941;-61
2021/06/15 01:47:21;;;;;;;8.18;7.47;;;;;;;16.36;75.66;99251.48;1792983;78;20946;-58
2021/06/15 01:49:53;;;;;;;8.10;7.05;;;;;;;16.40;75.84;99249.49;1813532;78;21143;-58
2021/06/15 01:52:28;;;;;;;9.00;7.75;;;;;;;16.43;75.87;99248.24;1768245;78;20998;-60
2021/06/15 01:54:55;;;;;;;8.20;7.45;;;;;;;16.43;75.70;99252.27;1801441;78;20934;-60
2021/06/15 01:57:23;;;;;;;8.63;7.53;;;;;;;16.29;76.02;99257.41;1756435;78;20938;-60
2021/06/15 01:59:52;;;;;;;7.70;7.00;;;;;;;16.21;76.38;99258.47;1781842;78;21013;-60
2021/06/15 02:02:18;;;;;;;7.80;7.10;;;;;;;16.24;76.53;99254.53;1773646;78;21803;-60
2021/06/15 02:04:48;;;;;;;7.42;6.72;;;;;;;16.21;76.48;99252.27;1734928;78;21509;-60
2021/06/15 02:07:23;;;;;;;7.50;6.53;;;;;;;16.19;76.61;99253.80;1750500;82;20900;-59
2021/06/15 02:09:55;;;;;;;8.35;6.37;;;;;;;16.24;76.67;99243.80;1743090;80;21051;-60
2021/06/15 02:12:43;;;;;;;7.03;6.37;;;;;;;16.18;76.72;99246.80;1724392;82;21082;-60
2021/06/15 02:15:15;;;;;;;7.80;6.50;;;;;;;16.15;76.83;99250.42;1735680;81;21170;-60
2021/06/15 02:17:46;;;;;;;8.73;6.35;;;;;;;16.20;76.80;99246.58;1764823;79;21560;-58
2021/06/15 02:20:15;;;;;;;7.30;5.85;;;;;;;16.18;76.78;99241.44;1803760;79;21023;-61
2021/06/15 02:22:48;;;;;;;6.33;5.70;;;;;;;16.21;76.77;99248.24;1761433;80;20959;-60
2021/06/15 02:25:21;;;;;;;7.50;5.97;;;;;;;16.26;76.78;99249.26;1736681;80;21038;-61
2021/06/15 02:27:48;;;;;;;6.22;5.72;;;;;;;16.32;76.63;99246.25;1795453;78;21118;-61
2021/06/15 02:30:16;;;;;;;6.00;5.50;;;;;;;16.35;76.45;99257.88;1790468;78;20998;-61
2021/06/15 02:32:44;;;;;;;6.30;5.58;;;;;;;16.31;76.54;99268.23;1798782;78;20918;-61
2021/06/15 02:35:12;;;;;;;5.80;5.10;;;;;;;16.27;76.65;99269.67;1812285;78;20998;-61
2021/06/15 02:37:50;;;;;;;5.12;4.62;;;;;;;16.27;76.61;99268.87;1808777;78;21013;-59
2021/06/15 02:40:16;;;;;;;7.03;4.78;;;;;;;16.33;76.41;99271.52;1812178;78;21076;-59
2021/06/15 02:42:45;;;;;;;5.10;4.70;;;;;;;16.40;75.94;99270.17;1804207;78;20824;-58
2021/06/15 02:45:14;;;;;;;5.22;4.78;;;;;;;16.41;75.47;99277.17;1782054;78;21525;-59
2021/06/15 02:47:44;;;;;;;5.25;4.33;;;;;;;16.46;75.23;99271.47;1759658;80;20943;-58
2021/06/15 02:50:14;;;;;;;4.58;4.17;;;;;;;16.38;75.35;99267.68;1808432;78;20872;-60
2021/06/15 02:52:46;;;;;;;4.62;4.22;;;;;;;16.41;75.54;99270.45;1726058;78;21792;-60
2021/06/15 02:55:20;;;;;;;4.70;4.30;;;;;;;16.46;75.52;99271.98;1820618;78;20894;-61
2021/06/15 02:57:47;;;;;;;4.95;4.37;;;;;;;16.55;75.63;99266.22;1764074;78;21029;-60
2021/06/15 03:00:15;;;;;;;5.10;4.60;;;;;;;16.71;75.63;99274.30;1802694;78;21008;-60
2021/06/15 03:02:42;;;;;;;5.83;5.20;;;;;;;16.84;75.69;99272.05;1800042;78;21001;-60
2021/06/15 03:05:10;;;;;;;5.47;4.80;;;;;;;16.97;75.55;99266.61;1819688;78;21098;-60
2021/06/15 03:07:37;;;;;;;5.47;4.97;;;;;;;17.11;75.41;99267.63;1820169;78;20989;-60
2021/06/15 03:10:06;;;;;;;6.53;5.33;;;;;;;17.26;75.08;99272.69;1812721;78;21075;-60
2021/06/15 03:12:51;;;;;;;5.80;5.22;;;;;;;17.38;74.71;99275.00;1805284;78;20906;-60
2021/06/15 03:15:20;;;;;;;5.80;5.25;;;;;;;17.50;74.42;99279.95;1780787;78;20914;-60
2021/06/15 03:17:57;;;;;;;5.78;5.28;;;;;;;17.69;74.16;99288.42;1740911;80;21144;-60
2021/06/15 03:20:25;;;;;;;5.40;4.90;;;;;;;17.94;73.93;99288.38;1743301;81;20986;-60
2021/06/15 03:23:22;;;;;;;6.80;5.62;;;;;;;18.21;73.40;99288.94;1784323;80;20954;-60
2021/06/15 03:25:48;;;;;;;6.45;5.95;;;;;;;18.52;72.95;99279.91;1683107;82;20954;-60
2021/06/15 03:28:23;;;;;;;7.50;6.80;;;;;;;18.96;71.56;99276.83;1716801;80;21056;-60
2021/06/15 03:30:49;;;;;;;6.12;5.62;;;;;;;19.36;70.38;99282.47;1714644;81;21119;-60
2021/06/15 03:33:16;;;;;;;5.65;5.15;;;;;;;19.72;68.95;99278.27;1740416;80;20947;-60
2021/06/15 03:35:48;;;;;;;6.05;5.17;;;;;;;20.01;67.24;99275.16;1749285;79;20979;-60
2021/06/15 03:38:15;;;;;;;5.72;5.20;;;;;;;20.19;66.39;99287.17;1764890;79;21019;-60
2021/06/15 03:40:50;;;;;;;5.25;4.85;;;;;;;20.43;65.62;99294.22;1746460;80;21005;-60
2021/06/15 03:43:17;;;;;;;6.12;5.45;;;;;;;20.62;64.61;99296.23;1748400;80;21787;-60
2021/06/15 03:45:53;;;;;;;5.25;4.75;;;;;;;20.72;64.17;99295.09;1767480;79;22342;-60
2021/06/15 03:48:19;;;;;;;5.28;4.78;;;;;;;20.80;63.40;99292.01;1747270;79;20963;-60
2021/06/15 03:50:49;;;;;;;4.95;4.50;;;;;;;20.84;63.10;99287.75;1749614;79;21058;-60
2021/06/15 03:53:14;;;;;;;5.42;4.53;;;;;;;20.94;62.75;99283.36;1746139;79;20931;-60
2021/06/15 03:55:42;;;;;;;5.50;4.90;;;;;;;21.14;62.41;99282.13;1758751;79;21070;-61
2021/06/15 03:58:10;;;;;;;5.37;4.72;;;;;;;21.36;61.70;99276.29;1768222;79;20992;-61
2021/06/15 04:00:37;;;;;;;5.35;4.60;;;;;;;21.58;61.14;99282.63;1776104;79;20895;-61
2021/06/15 04:03:06;;;;;;;4.67;4.28;;;;;;;21.70;60.54;99282.53;1774190;79;21456;-60
2021/06/15 04:05:35;;;;;;;5.60;4.92;;;;;;;21.82;60.28;99284.64;1697230;82;21093;-62
2021/06/15 04:08:05;;;;;;;5.20;4.70;;;;;;;22.04;59.74;99281.47;1759218;79;21160;-60
2021/06/15 04:10:32;;;;;;;4.87;4.40;;;;;;;22.23;59.15;99288.78;1767902;79;21034;-61
2021/06/15 04:13:01;;;;;;;6.22;4.78;;;;;;;22.45;58.49;99293.14;1770908;79;20931;-60
2021/06/15 04:15:27;;;;;;;6.55;5.28;;;;;;;22.68;57.95;99298.91;1698349;82;20987;-60
2021/06/15 04:17:57;;;;;;;4.80;4.40;;;;;;;22.94;57.02;99295.95;1740593;80;20896;-60
2021/06/15 04:20:29;;;;;;;4.85;4.45;;;;;;;23.17;56.33;99286.97;1760100;79;21143;-60
2021/06/15 04:22:55;;;;;;;4.95;4.55;;;;;;;23.48;55.58;99287.28;1765305;79;20988;-59
2021/06/15 04:25:28;;;;;;;6.33;4.55;;;;;;;23.76;54.78;99287.78;1767273;79;20978;-61
2021/06/15 04:27:55;;;;;;;4.87;4.40;;;;;;;24.28;52.91;99286.52;1753535;80;21504;-62
2021/06/15 04:30:21;;;;;;;5.40;4.95;;;;;;;24.28;52.91;99286.52;1745904;80;21065;-62
2021/06/15 04:33:00;;;;;;;4.50;4.10;;;;;;;24.46;52.49;99288.80;1753004;80;21123;-62
2021/06/15 04:35:44;;;;;;;4.90;4.37;;;;;;;24.68;52.02;99297.32;1766265;80;20992;-61
2021/06/15 04:38:28;;;;;;;5.05;4.55;;;;;;;24.87;51.38;99291.72;1745175;80;21512;-62
2021/06/15 04:41:04;;;;;;;4.75;4.33;;;;;;;24.92;51.23;99289.02;1749082;80;20971;-62
2021/06/15 04:43:48;;;;;;;4.67;4.28;;;;;;;25.07;50.89;99283.06;1745631;80;20990;-62
2021/06/15 04:46:28;;;;;;;5.55;4.55;;;;;;;25.24;50.75;99288.25;1713088;81;21104;-62
2021/06/15 04:49:11;;;;;;;4.62;4.08;;;;;;;25.49;50.22;99285.61;1716036;81;20959;-61
2021/06/15 04:51:38;;;;;;;4.83;4.50;;;;;;;25.69;49.62;99285.59;1736767;82;21410;-61
2021/06/15 04:54:04;;;;;;;5.15;4.65;;;;;;;25.69;49.42;99283.41;1766317;80;21126;-57
2021/06/15 04:56:31;;;;;;;6.45;4.00;;;;;;;25.74;49.29;99285.59;1747445;80;21061;-58
2021/06/15 04:58:59;;;;;;;6.17;4.50;;;;;;;25.81;49.29;99287.23;1745696;80;21128;-61
2021/06/15 05:01:26;;;;;;;4.85;4.45;;;;;;;26.02;49.07;99289.64;1738684;80;21062;-62
2021/06/15 05:03:53;;;;;;;5.03;4.60;;;;;;;26.30;48.51;99285.55;1751462;80;21072;-60
2021/06/15 05:06:20;;;;;;;5.35;4.22;;;;;;;26.41;47.82;99289.06;1750219;80;21489;-61
2021/06/15 05:08:57;;;;;;;5.12;4.72;;;;;;;26.35;47.92;99289.62;1738071;80;21094;-62
2021/06/15 05:11:26;;;;;;;4.42;4.03;;;;;;;26.33;47.99;99289.09;1763293;80;21117;-64
2021/06/15 05:13:54;;;;;;;4.90;4.50;;;;;;;26.53;47.87;99288.19;1740357;80;20925;-63
2021/06/15 05:16:22;;;;;;;4.47;3.98;;;;;;;26.58;47.35;99283.53;1754568;80;20986;-67
2021/06/15 05:18:49;;;;;;;4.80;4.25;;;;;;;26.64;47.46;99282.97;1734025;80;21015;-65
2021/06/15 05:21:19;;;;;;;4.55;4.15;;;;;;;26.86;47.22;99292.44;1727516;80;20892;-63
2021/06/15 05:24:05;;;;;;;4.30;3.98;;;;;;;27.07;46.77;99295.88;1751155;81;21124;-65
2021/06/15 05:26:31;;;;;;;4.03;3.67;;;;;;;27.29;46.32;99301.75;1727333;80;21556;-64
2021/06/15 05:28:58;;;;;;;4.65;4.20;;;;;;;27.55;45.81;99310.61;1743771;80;20952;-65
2021/06/15 05:31:24;;;;;;;4.37;4.05;;;;;;;27.74;45.38;99301.97;1744073;80;20947;-65
2021/06/15 05:33:51;;;;;;;4.12;3.72;;;;;;;27.97;44.92;99299.87;1800406;79;20903;-64
2021/06/15 05:36:18;;;;;;;4.78;3.87;;;;;;;28.24;44.29;99302.08;1806420;79;21837;-65
2021/06/15 05:38:44;;;;;;;5.25;3.95;;;;;;;28.59;43.64;99302.23;1762107;79;21509;-63
2021/06/15 05:41:11;;;;;;;4.10;3.80;;;;;;;28.92;42.95;99299.92;1806140;79;20934;-62
2021/06/15 05:43:38;;;;;;;4.58;4.03;;;;;;;29.25;42.17;99295.41;1734880;80;20990;-61
2021/06/15 05:46:04;;;;;;;4.12;3.83;;;;;;;29.64;41.35;99296.44;1743766;80;21019;-63
2021/06/15 05:48:30;;;;;;;5.37;3.85;;;;;;;30.05;40.57;99296.58;1743616;80;21146;-61
2021/06/15 05:50:57;;;;;;;5.08;4.60;;;;;;;30.40;39.78;99295.38;1787445;79;20912;-61
2021/06/15 05:53:23;;;;;;;4.60;3.95;;;;;;;30.85;38.92;99290.06;1743909;80;21493;-61
2021/06/15 05:55:50;;;;;;;6.35;3.98;;;;;;;30.94;38.67;99289.64;1784449;79;21089;-63
2021/06/15 05:58:17;;;;;;;4.83;3.70;;;;;;;31.14;38.63;99286.44;1789849;79;21469;-62
2021/06/15 06:00:46;;;;;;;5.28;4.10;;;;;;;31.45;37.99;99286.00;1743793;80;21312;-61
2021/06/15 06:03:17;;;;;;;4.00;3.70;;;;;;;31.68;37.38;99283.50;1787792;79;21497;-64
2021/06/15 06:08:25;;;;;;;4.10;3.70;;;;;;;31.98;37.05;99281.10;1762432;79;21074;-62
2021/06/15 06:10:52;;;;;;;4.20;3.90;;;;;;;32.30;36.40;99280.82;1779227;79;20957;-62
2021/06/15 06:13:19;;;;;;;3.87;3.58;;;;;;;32.35;35.78;99275.99;1787044;80;21100;-64
2021/06/15 06:15:46;;;;;;;3.87;3.35;;;;;;;32.16;36.20;99285.05;1806232;79;20927;-64
2021/06/15 06:18:12;;;;;;;4.78;2.95;;;;;;;32.24;36.16;99279.33;1758467;79;20959;-63
2021/06/15 06:20:39;;;;;;;4.05;3.45;;;;;;;32.19;36.32;99269.84;1743935;80;20962;-60
2021/06/15 06:23:06;;;;;;;4.20;3.65;;;;;;;32.35;36.43;99273.24;1743842;80;20927;-59
2021/06/15 06:25:35;;;;;;;5.95;3.50;;;;;;;32.52;35.94;99272.50;1787954;79;22862;-58
2021/06/15 06:28:03;;;;;;;7.15;3.25;;;;;;;32.62;35.67;99275.52;1774738;79;20959;-60
2021/06/15 06:30:31;;;;;;;7.12;3.50;;;;;;;32.59;35.40;99274.22;1729483;81;20958;-59
2021/06/15 06:32:57;;;;;;;3.52;3.10;;;;;;;32.40;35.27;99275.59;1820015;78;20899;-62
2021/06/15 06:35:23;;;;;;;4.00;3.70;;;;;;;32.25;35.63;99276.84;1750353;82;21053;-61
2021/06/15 06:37:50;;;;;;;4.00;3.70;;;;;;;32.22;35.99;99275.53;1792129;78;21837;-59
2021/06/15 06:40:17;;;;;;;4.78;4.15;;;;;;;32.36;36.04;99278.16;1801492;78;20860;-59
2021/06/15 06:42:43;;;;;;;5.15;4.05;;;;;;;32.52;35.48;99274.41;1779120;78;20990;-59
2021/06/15 06:45:10;;;;;;;4.17;3.05;;;;;;;32.46;35.51;99273.73;1730444;81;20976;-57
2021/06/15 06:47:37;;;;;;;3.90;3.37;;;;;;;32.49;34.82;99277.23;1733781;80;20856;-58
2021/06/15 06:50:06;;;;;;;4.00;3.30;;;;;;;32.18;35.59;99271.77;1733016;80;21489;-59
2021/06/15 06:52:32;;;;;;;3.50;3.22;;;;;;;32.20;35.95;99278.35;1756447;78;20938;-59
2021/06/15 06:54:59;;;;;;;3.55;3.22;;;;;;;32.43;35.80;99279.09;1775177;79;21005;-57
2021/06/15 06:57:26;;;;;;;3.70;3.42;;;;;;;32.62;35.40;99270.83;1768618;78;21014;-58
2021/06/15 06:59:52;;;;;;;4.08;3.62;;;;;;;32.85;35.12;99266.83;1756545;78;21021;-58
2021/06/15 07:02:19;;;;;;;3.80;3.42;;;;;;;33.09;34.77;99271.10;1756585;78;21428;-57
2021/06/15 07:04:45;;;;;;;4.30;3.20;;;;;;;33.25;34.58;99272.25;1756455;78;20982;-60
2021/06/15 07:07:12;;;;;;;3.45;3.25;;;;;;;33.39;34.41;99271.53;1756412;78;21052;-58
2021/06/15 07:09:38;;;;;;;3.75;3.08;;;;;;;33.68;34.01;99267.57;1757698;78;21461;-58
2021/06/15 07:12:07;;;;;;;4.15;2.83;;;;;;;34.01;33.34;99268.62;1799081;78;21017;-58
2021/06/15 07:14:36;;;;;;;4.40;2.58;;;;;;;34.35;32.76;99271.86;1750267;81;21126;-57
2021/06/15 07:17:03;;;;;;;3.22;2.95;;;;;;;34.64;32.32;99266.38;1786168;78;21465;-59
2021/06/15 07:19:30;;;;;;;4.25;2.58;;;;;;;35.05;31.68;99268.98;1766943;78;20946;-57
2021/06/15 07:21:56;;;;;;;3.45;3.15;;;;;;;35.44;31.36;99262.16;1756487;78;21527;-60
2021/06/15 07:24:22;;;;;;;4.67;3.27;;;;;;;35.95;30.58;99263.86;1788400;78;20977;-59
2021/06/15 07:26:50;;;;;;;2.75;2.12;;;;;;;35.99;30.04;99263.17;1729250;81;21123;-60
2021/06/15 07:29:17;;;;;;;4.50;2.75;;;;;;;36.24;29.97;99259.34;1799061;77;21086;-59
2021/06/15 07:31:43;;;;;;;2.72;2.22;;;;;;;36.49;29.30;99254.06;1754205;79;21488;-60
2021/06/15 07:34:10;;;;;;;3.47;2.30;;;;;;;36.68;29.16;99248.76;1737325;80;21018;-58
2021/06/15 07:36:36;;;;;;;2.47;2.27;;;;;;;36.78;28.67;99253.82;1737781;80;20876;-58
2021/06/15 07:39:05;;;;;;;3.22;2.67;;;;;;;37.21;28.37;99254.55;1744852;80;21823;-59
2021/06/15 07:41:31;;;;;;;4.70;2.80;;;;;;;37.57;27.48;99247.50;1785441;79;20935;-58
2021/06/15 07:43:57;;;;;;;3.22;2.42;;;;;;;37.62;27.10;99246.46;1718841;82;21481;-60
2021/06/15 07:46:24;;;;;;;2.90;2.20;;;;;;;37.69;27.20;99234.97;1770673;79;21485;-60
2021/06/15 07:48:52;;;;;;;4.40;2.77;;;;;;;38.05;26.85;99241.48;1737475;80;20987;-58
2021/06/15 07:51:18;;;;;;;5.58;2.87;;;;;;;38.38;26.32;99237.78;1749134;79;21236;-57
2021/06/15 07:53:45;;;;;;;6.03;2.70;;;;;;;38.59;26.10;99233.34;1768650;79;20990;-60
2021/06/15 07:56:11;;;;;;;4.97;2.70;;;;;;;38.81;25.62;99234.88;1786899;79;20892;-62
2021/06/15 07:58:37;;;;;;;4.62;2.52;;;;;;;38.88;25.58;99229.47;1718909;83;21430;-58
2021/06/15 08:01:04;;;;;;;2.47;2.22;;;;;;;38.98;25.43;99225.91;1755732;79;20947;-59
2021/06/15 08:03:30;;;;;;;4.78;2.65;;;;;;;39.01;25.17;99227.36;1718757;83;21154;-59
2021/06/15 08:05:57;;;;;;;2.83;2.20;;;;;;;38.95;25.16;99222.47;1760979;79;20892;-60
2021/06/15 08:08:23;;;;;;;4.53;2.25;;;;;;;38.94;25.28;99222.23;1781064;79;21051;-60
2021/06/15 08:10:50;;;;;;;2.37;2.10;;;;;;;39.00;25.10;99207.70;1737555;80;21102;-60
2021/06/15 08:13:18;;;;;;;2.92;2.02;;;;;;;38.93;25.17;99219.25;1737266;80;20904;-58
2021/06/15 08:15:49;;;;;;;3.15;2.40;;;;;;;38.87;25.33;99213.98;1765973;79;21455;-59
2021/06/15 08:18:16;;;;;;;2.52;2.30;;;;;;;38.79;25.57;99205.26;1752073;79;20994;-59
2021/06/15 08:20:49;;;;;;;4.75;2.22;;;;;;;38.68;25.37;99205.56;1745871;80;21031;-59
2021/06/15 08:23:15;;;;;;;5.90;2.70;;;;;;;38.32;25.89;99198.96;1781036;79;20974;-60
2021/06/15 08:25:43;;;;;;;5.00;3.45;;;;;;;38.19;26.22;99195.45;1737347;80;20940;-59
2021/06/15 08:28:10;;;;;;;7.35;3.65;;;;;;;37.81;26.38;99191.63;1783284;79;21134;-60
2021/06/15 08:30:37;;;;;;;5.83;4.00;;;;;;;37.55;27.13;99194.34;1741989;82;21006;-58
2021/06/15 08:33:04;;;;;;;3.95;2.87;;;;;;;37.33;27.54;99193.51;1753563;80;21023;-59
2021/06/15 08:35:31;;;;;;;6.70;2.65;;;;;;;37.09;27.70;99188.86;1738699;80;21007;-58
2021/06/15 08:37:57;;;;;;;4.87;2.65;;;;;;;36.99;27.69;99189.94;1742105;82;21571;-59
2021/06/15 08:40:24;;;;;;;3.62;2.52;;;;;;;37.02;27.60;99189.24;1745572;80;21125;-58
2021/06/15 08:42:50;;;;;;;3.05;2.85;;;;;;;37.18;27.58;99194.24;1763951;80;20896;-58
2021/06/15 08:45:17;;;;;;;4.97;3.58;;;;;;;37.27;27.15;99191.33;1770903;80;21528;-59
2021/06/15 08:47:49;;;;;;;4.30;3.15;;;;;;;37.02;27.24;99192.02;1742107;82;20895;-59
2021/06/15 08:50:22;;;;;;;5.22;2.98;;;;;;;36.74;27.74;99191.92;1748835;80;21003;-60
2021/06/15 08:52:49;;;;;;;3.77;3.02;;;;;;;36.81;27.68;99186.62;1726803;80;21115;-58
2021/06/15 08:55:16;;;;;;;7.53;3.52;;;;;;;36.94;27.80;99187.38;1753092;80;21552;-58
2021/06/15 08:57:45;;;;;;;11.10;3.67;;;;;;;37.13;27.69;99186.98;1744114;80;20999;-58
2021/06/15 09:00:13;;;;;;;7.20;2.80;;;;;;;37.15;27.51;99183.88;1727529;80;21517;-59
2021/06/15 09:02:42;;;;;;;3.85;2.85;;;;;;;37.05;27.45;99187.94;1727471;80;21014;-61
2021/06/15 09:05:11;;;;;;;9.10;3.27;;;;;;;37.13;27.53;99195.88;1727680;80;21113;-59
2021/06/15 09:08:12;;;;;;;9.50;2.83;;;;;;;37.19;27.05;99187.55;1764613;80;21402;-61
2021/06/15 09:10:43;;;;;;;3.70;2.15;;;;;;;37.18;27.50;99197.02;1742073;82;20864;-59
2021/06/15 09:13:40;;;;;;;2.62;2.42;;;;;;;37.07;27.23;99191.19;1761358;80;20967;-59
2021/06/15 09:16:33;;;;;;;3.15;2.15;;;;;;;36.45;28.04;99195.74;1727458;80;20929;-58
2021/06/15 09:19:01;;;;;;;2.35;2.15;;;;;;;35.98;28.50;99195.15;1727419;80;21835;-59
2021/06/15 09:21:37;;;;;;;2.25;2.05;;;;;;;35.64;28.83;99199.13;1727442;80;21391;-59
2021/06/15 09:24:11;;;;;;;2.10;1.90;;;;;;;35.41;29.24;99196.48;1746362;80;20979;-58
2021/06/15 09:27:08;;;;;;;5.27;2.23;;;;;;;35.16;29.70;99203.30;1728717;80;21423;-58
2021/06/15 09:29:42;;;;;;;2.12;2.00;;;;;;;34.94;30.13;99200.83;1746042;80;20995;-58
2021/06/15 09:32:16;;;;;;;3.25;2.50;;;;;;;34.88;30.57;99194.48;1768796;78;21141;-58
2021/06/15 09:35:00;;;;;;;6.85;2.30;;;;;;;34.89;30.57;99197.45;1784400;78;21001;-58
2021/06/15 09:37:41;;;;;;;2.08;1.90;;;;;;;34.79;30.88;99198.67;1766389;78;21058;-56
2021/06/15 09:40:29;;;;;;;2.75;2.42;;;;;;;34.71;30.33;99192.07;1767674;78;20989;-57
2021/06/15 09:43:10;;;;;;;2.25;2.10;;;;;;;34.52;30.40;99192.27;1764067;78;21465;-59
2021/06/15 09:45:43;;;;;;;2.70;2.50;;;;;;;34.26;30.66;99194.36;1805835;78;21161;-57
2021/06/15 09:48:38;;;;;;;2.45;2.25;;;;;;;34.18;31.30;99185.55;1772369;78;21559;-58
2021/06/15 09:51:12;;;;;;;3.45;1.82;;;;;;;34.24;31.33;99191.92;1756647;78;20989;-58
2021/06/15 09:53:45;;;;;;;2.67;2.17;;;;;;;34.25;30.94;99189.41;1783528;78;20918;-59
2021/06/15 09:56:14;;;;;;;3.62;2.25;;;;;;;34.26;30.99;99187.47;1772132;78;20934;-59
2021/06/15 09:58:49;;;;;;;3.67;2.27;;;;;;;34.18;31.21;99186.94;1774171;78;21539;-58
2021/06/15 10:01:34;;;;;;;2.75;2.30;;;;;;;34.14;31.35;99184.83;1788264;78;20895;-57
2021/06/15 10:04:19;;;;;;;2.33;2.12;;;;;;;34.05;31.49;99181.85;1781639;78;21536;-58
2021/06/15 10:06:55;;;;;;;5.55;3.17;;;;;;;33.92;31.69;99180.91;1785223;78;21131;-60
2021/06/15 10:09:32;;;;;;;;;;;;;;;33.68;31.82;99183.45;1789239;78;20994;-65
2021/06/15 10:12:08;;;;;;;4.50;3.33;;;;;;;33.44;32.00;99180.39;1769147;78;20103;-60
2021/06/15 10:14:38;;;;;;;5.20;2.35;;;;;;;33.32;32.23;99178.87;1789813;78;20844;-60
2021/06/15 10:17:04;;;;;;;3.67;2.33;;;;;;;33.25;32.55;99174.41;1785883;78;20895;-60
2021/06/15 10:19:32;;;;;;;4.58;3.12;;;;;;;33.21;32.66;99178.96;1785706;78;21445;-59
2021/06/15 10:21:59;;;;;;;3.15;2.85;;;;;;;33.03;32.60;99174.01;1789554;78;20942;-60
2021/06/15 10:24:26;;;;;;;3.95;2.98;;;;;;;32.76;32.99;99180.64;1786824;78;21096;-61
2021/06/15 10:26:53;;;;;;;3.75;2.30;;;;;;;32.63;33.55;99173.34;1786907;78;20907;-62
2021/06/15 10:29:20;;;;;;;3.08;2.60;;;;;;;32.62;33.61;99172.27;1785255;78;20974;-58
2021/06/15 10:31:49;;;;;;;4.50;2.25;;;;;;;32.60;33.09;99169.84;1786619;78;20978;-58
2021/06/15 10:34:47;;;;;;;9.13;2.58;;;;;;;32.54;32.98;99167.58;1789259;78;20883;-61
2021/06/15 10:37:37;;;;;;;4.87;2.45;;;;;;;32.49;33.47;99177.31;1789368;78;21822;-59
2021/06/15 10:40:27;;;;;;;5.03;2.10;;;;;;;32.50;33.67;99170.69;1787480;78;20931;-60
2021/06/15 10:43:35;;;;;;;3.83;1.98;;;;;;;32.47;33.58;99169.95;1785375;78;21034;-59
2021/06/15 10:46:08;;;;;;;2.90;2.17;;;;;;;32.37;33.48;99172.45;1784866;78;21061;-58
2021/06/15 10:48:43;;;;;;;6.03;2.15;;;;;;;32.21;33.62;99167.95;1784719;78;20907;-59
2021/06/15 10:51:22;;;;;;;2.67;2.17;;;;;;;31.97;34.13;99167.50;1735517;80;21325;-58
2021/06/15 10:53:49;;;;;;;2.25;2.08;;;;;;;31.71;34.22;99166.58;1732877;80;21070;-59
2021/06/15 10:56:17;;;;;;;1.82;1.72;;;;;;;31.58;34.61;99162.80;1782468;78;21101;-58
2021/06/15 10:59:01;;;;;;;2.17;1.98;;;;;;;31.57;34.09;99157.04;1801678;78;20927;-61
2021/06/15 11:01:29;;;;;;;2.52;2.08;;;;;;;31.54;33.87;99160.45;1765030;78;20914;-59
2021/06/15 11:04:01;;;;;;;3.37;2.30;;;;;;;31.52;33.79;99158.55;1756528;78;21139;-59
2021/06/15 11:06:33;;;;;;;3.27;2.17;;;;;;;31.48;33.96;99154.82;1760321;78;21022;-58
2021/06/15 11:09:11;;;;;;;3.25;2.02;;;;;;;31.43;34.20;99151.36;1772740;78;20946;-60
2021/06/15 11:11:39;;;;;;;1.90;1.80;;;;;;;31.44;34.37;99155.19;1756486;78;20947;-61
2021/06/15 11:14:09;;;;;;;2.05;1.85;;;;;;;31.36;34.08;99153.19;1770885;80;20881;-61
2021/06/15 11:16:46;;;;;;;3.65;1.70;;;;;;;31.26;34.26;99153.42;1765543;78;20875;-63
2021/06/15 11:19:18;;;;;;;2.55;2.35;;;;;;;31.23;34.39;99152.70;1772914;78;20982;-59
2021/06/15 11:21:51;;;;;;;4.55;1.70;;;;;;;31.25;34.38;99148.26;1808568;78;20967;-61
2021/06/15 11:24:28;;;;;;;1.80;1.70;;;;;;;31.17;34.40;99152.57;1790207;78;20879;-61
2021/06/15 11:27:18;;;;;;;3.42;1.50;;;;;;;31.08;34.49;99153.05;1780713;78;20939;-61
2021/06/15 11:29:48;;;;;;;1.95;1.52;;;;;;;30.96;35.02;99145.95;1793927;79;21226;-60
2021/06/15 11:32:24;;;;;;;1.85;1.75;;;;;;;30.93;35.10;99136.40;1740672;79;20856;-62
2021/06/15 11:34:59;;;;;;;2.17;1.57;;;;;;;30.83;34.94;99136.61;1737461;80;21050;-64
2021/06/15 11:37:46;;;;;;;3.43;1.83;;;;;;;30.79;35.11;99134.22;1737802;80;21477;-58
2021/06/15 11:40:36;;;;;;;3.75;1.67;;;;;;;30.80;35.43;99130.37;1738472;79;21521;-59
2021/06/15 11:43:16;;;;;;;1.45;1.35;;;;;;;30.85;35.96;99129.42;1799266;79;21176;-60
2021/06/15 11:45:49;;;;;;;4.35;1.40;;;;;;;30.93;35.25;99125.97;1755626;79;20940;-59
2021/06/15 11:48:29;;;;;;;1.98;1.70;;;;;;;30.97;35.28;99117.37;1717954;83;21071;-62
2021/06/15 11:50:55;;;;;;;1.50;1.40;;;;;;;31.04;34.81;99113.62;1754426;79;20994;-62
2021/06/15 11:53:21;;;;;;;3.80;2.10;;;;;;;31.12;34.64;99110.13;1737335;80;21006;-62
2021/06/15 11:56:02;;;;;;;4.12;1.80;;;;;;;31.19;34.27;99106.36;1737010;80;21228;-59
2021/06/15 11:58:33;;;;;;;2.25;1.40;;;;;;;31.13;34.20;99098.02;1757667;80;21577;-60